ENHV/HVG METAR and TAF weather

Enter ICAO airport designator
Station Type Date Time Source
ENHV METAR 2023/01/29 18:20 UTC NOAA

ENHV 291820Z VRB03KT 9999 FEW031 M01/M04 Q0974


Station Type Date Time Source
ENHV Decoded METAR 2023/01/29 18:20 UTC NOAA

Honningsvag / Valan, Norway (ENHV) 71-01N 025-59E 14M
Jan 29, 2023 - 01:20 PM EST / 2023.01.29 1820 UTC
Wind: Variable at 3 MPH (3 KT):0
Visibility: greater than 7 mile(s):0
Sky conditions: mostly clear
Temperature: 30 F (-1 C)
Dew Point: 24 F (-4 C)
Relative Humidity: 80%
Pressure (altimeter): 28.76 in. Hg (0974 hPa)
ob: ENHV 291820Z VRB03KT 9999 FEW031 M01/M04 Q0974
cycle: 18

Station Type Date Time Source
ENHV TAF UTC NOAA

Error!

Example: see airport list